createdAt,value
2023-01-20T00:01:26.157Z,99.06
2023-01-20T00:03:55.153Z,99.27
2023-01-20T00:06:23.796Z,98.94
2023-01-20T00:08:55.045Z,98.56
2023-01-20T00:11:22.378Z,98.67
2023-01-20T00:13:53.078Z,99.15
2023-01-20T00:16:19.948Z,98.82
2023-01-20T00:18:46.876Z,98.88
2023-01-20T00:21:14.594Z,98.72
2023-01-20T00:23:41.589Z,98.74
2023-01-20T00:26:14.290Z,98.80
2023-01-20T00:28:41.141Z,98.40
2023-01-20T00:31:19.096Z,98.16
2023-01-20T00:33:47.720Z,98.29
2023-01-20T00:36:16.634Z,98.49
2023-01-20T00:38:44.003Z,97.94
2023-01-20T00:41:11.514Z,97.82
2023-01-20T00:43:39.062Z,97.56
2023-01-20T00:46:06.779Z,97.38
2023-01-20T00:48:34.357Z,97.23
2023-01-20T00:51:01.430Z,97.21
2023-01-20T00:53:28.494Z,97.01
2023-01-20T00:55:55.645Z,97.36
2023-01-20T00:58:23.019Z,97.63
2023-01-20T01:00:52.152Z,97.49
2023-01-20T01:03:19.386Z,96.68
2023-01-20T01:05:46.423Z,96.92
2023-01-20T01:08:14.143Z,96.25
2023-01-20T01:10:41.310Z,96.53
2023-01-20T01:13:09.504Z,96.83
2023-01-20T01:15:36.769Z,97.00
2023-01-20T01:18:04.373Z,96.77
2023-01-20T01:20:31.882Z,96.58
2023-01-20T01:22:58.745Z,96.61
2023-01-20T01:25:25.763Z,96.16
2023-01-20T01:27:52.667Z,95.82
2023-01-20T01:30:19.675Z,96.15
2023-01-20T01:32:47.455Z,95.79
2023-01-20T01:35:14.793Z,95.66
2023-01-20T01:37:41.907Z,95.65
2023-01-20T01:40:09.365Z,95.27
2023-01-20T01:42:36.851Z,95.34
2023-01-20T01:45:13.746Z,95.22
2023-01-20T01:47:46.744Z,94.84
2023-01-20T01:50:21.678Z,94.73
2023-01-20T01:53:09.474Z,94.64
2023-01-20T01:55:39.785Z,94.98
2023-01-20T01:58:09.337Z,94.96
2023-01-20T02:00:38.250Z,95.05
2023-01-20T02:03:06.716Z,94.43
2023-01-20T02:05:35.374Z,94.32
2023-01-20T02:08:03.268Z,94.67
2023-01-20T02:10:31.577Z,94.04
2023-01-20T02:13:00.374Z,94.06
2023-01-20T02:15:34.425Z,94.19
2023-01-20T02:18:17.380Z,93.85
2023-01-20T02:21:15.138Z,93.90
2023-01-20T02:23:41.869Z,93.54
2023-01-20T02:26:39.504Z,93.28
2023-01-20T02:29:06.410Z,93.26
2023-01-20T02:32:10.793Z,93.66
2023-01-20T02:34:43.641Z,92.92
2023-01-20T02:37:40.566Z,93.27
2023-01-20T02:40:27.697Z,93.08
2023-01-20T02:42:54.393Z,93.26
2023-01-20T02:45:39.444Z,92.65
2023-01-20T02:48:32.439Z,92.94
2023-01-20T02:51:05.466Z,92.42
2023-01-20T02:53:40.889Z,92.69
2023-01-20T02:56:09.539Z,92.39
2023-01-20T02:59:10.858Z,92.39
2023-01-20T03:01:43.620Z,92.23
2023-01-20T03:04:13.864Z,91.55
2023-01-20T03:06:47.283Z,91.27
2023-01-20T03:09:18.312Z,91.57
2023-01-20T03:11:51.725Z,91.31
2023-01-20T03:14:19.396Z,91.41
2023-01-20T03:16:48.438Z,91.49
2023-01-20T03:19:20.241Z,91.40
2023-01-20T03:21:48.454Z,91.27
2023-01-20T03:24:15.401Z,91.15
2023-01-20T03:26:42.644Z,91.15
2023-01-20T03:29:15.346Z,90.77
2023-01-20T03:31:51.479Z,90.35
2023-01-20T03:34:22.153Z,90.19
2023-01-20T03:36:50.389Z,90.39
2023-01-20T03:39:18.574Z,90.25
2023-01-20T03:41:48.218Z,89.90
2023-01-20T03:44:31.977Z,89.75
2023-01-20T03:47:18.457Z,89.61
2023-01-20T03:50:18.591Z,89.09
2023-01-20T03:52:53.590Z,89.45
2023-01-20T03:55:34.336Z,88.79
2023-01-20T03:58:06.242Z,88.73
2023-01-20T04:00:36.628Z,88.86
2023-01-20T04:03:09.059Z,89.13
2023-01-20T04:05:38.628Z,88.22
2023-01-20T04:08:08.932Z,88.59
2023-01-20T04:10:40.430Z,88.03
2023-01-20T04:13:07.469Z,88.51
2023-01-20T04:15:42.202Z,87.79
2023-01-20T04:18:16.075Z,87.97
2023-01-20T04:20:49.288Z,88.04
2023-01-20T04:23:44.044Z,87.18
2023-01-20T04:26:10.881Z,87.62
2023-01-20T04:28:37.762Z,87.58
2023-01-20T04:31:04.979Z,88.06
2023-01-20T04:33:31.986Z,87.12
2023-01-20T04:35:59.015Z,87.14
2023-01-20T04:38:25.916Z,86.96
2023-01-20T04:40:52.929Z,86.74
2023-01-20T04:43:19.773Z,87.01
2023-01-20T04:45:46.659Z,87.01
2023-01-20T04:48:13.778Z,87.03
2023-01-20T04:50:41.440Z,86.77
2023-01-20T04:53:13.480Z,86.46
2023-01-20T04:55:40.442Z,86.25
2023-01-20T04:58:07.475Z,86.65
2023-01-20T05:00:34.317Z,86.21
2023-01-20T05:03:02.661Z,85.87
2023-01-20T05:05:29.694Z,86.27
2023-01-20T05:07:57.294Z,86.51
2023-01-20T05:10:24.222Z,86.22
2023-01-20T05:12:51.238Z,86.02
2023-01-20T05:15:18.095Z,85.97
2023-01-20T05:17:54.025Z,85.65
2023-01-20T05:20:21.212Z,86.21
2023-01-20T05:22:48.201Z,85.91
2023-01-20T05:25:15.583Z,85.27
2023-01-20T05:27:42.878Z,85.22
2023-01-20T05:30:10.609Z,85.17
2023-01-20T05:32:37.820Z,85.55
2023-01-20T05:35:05.390Z,85.59
2023-01-20T05:37:32.599Z,85.01
2023-01-20T05:39:59.514Z,84.79
2023-01-20T05:42:26.623Z,84.85
2023-01-20T05:44:53.458Z,85.45
2023-01-20T05:47:20.358Z,85.30
2023-01-20T05:49:47.313Z,85.04
2023-01-20T05:52:14.465Z,84.83
2023-01-20T05:54:41.323Z,85.22
2023-01-20T05:57:08.420Z,84.93
2023-01-20T05:59:35.330Z,84.87
2023-01-20T06:02:02.290Z,84.93
2023-01-20T06:04:29.215Z,85.07
2023-01-20T06:06:56.250Z,85.24
2023-01-20T06:09:23.285Z,84.63
2023-01-20T06:11:51.083Z,84.90
2023-01-20T06:14:18.081Z,84.41
2023-01-20T06:16:45.039Z,84.31
2023-01-20T06:19:11.901Z,84.41
2023-01-20T06:21:39.022Z,84.08
2023-01-20T06:24:06.361Z,84.34
2023-01-20T06:26:33.250Z,83.93
2023-01-20T06:29:01.506Z,84.32
2023-01-20T06:31:28.721Z,83.91
2023-01-20T06:33:59.000Z,84.13
2023-01-20T06:36:25.842Z,84.19
2023-01-20T06:38:53.428Z,83.96
2023-01-20T06:41:21.408Z,83.61
2023-01-20T06:43:50.338Z,84.25
2023-01-20T06:46:17.742Z,83.84
2023-01-20T06:48:46.062Z,83.71
2023-01-20T06:51:15.241Z,83.72
2023-01-20T06:53:43.135Z,83.59
2023-01-20T06:56:12.530Z,83.36
2023-01-20T06:58:40.391Z,83.66
2023-01-20T07:01:13.555Z,83.27
2023-01-20T07:03:44.096Z,83.42
2023-01-20T07:06:15.592Z,83.22
2023-01-20T07:08:43.959Z,82.70
2023-01-20T07:11:11.299Z,82.83
2023-01-20T07:13:38.305Z,82.84
2023-01-20T07:16:05.366Z,83.15
2023-01-20T07:18:32.334Z,82.65
2023-01-20T07:21:00.414Z,83.03
2023-01-20T07:23:27.886Z,82.96
2023-01-20T07:26:02.926Z,83.33
2023-01-20T07:28:31.663Z,83.39
2023-01-20T07:31:05.185Z,82.74
2023-01-20T07:33:32.932Z,82.59
2023-01-20T07:36:00.436Z,83.09
2023-01-20T07:38:42.968Z,82.77
2023-01-20T07:41:16.066Z,83.06
2023-01-20T07:43:46.400Z,83.17
2023-01-20T07:46:14.148Z,82.61
2023-01-20T07:48:42.088Z,82.44
2023-01-20T07:51:11.684Z,82.90
2023-01-20T07:53:41.058Z,82.43
2023-01-20T07:56:30.752Z,82.29
2023-01-20T07:58:58.101Z,82.40
2023-01-20T08:01:31.043Z,82.42
2023-01-20T08:04:02.888Z,82.53
2023-01-20T08:06:30.450Z,82.14
2023-01-20T08:09:01.725Z,81.49
2023-01-20T08:11:29.605Z,81.69
2023-01-20T08:13:56.445Z,81.62
2023-01-20T08:16:23.524Z,81.91
2023-01-20T08:18:53.816Z,81.14
2023-01-20T08:21:26.664Z,81.67
2023-01-20T08:23:56.317Z,81.13
2023-01-20T08:26:27.460Z,81.26
2023-01-20T08:28:55.823Z,81.55
2023-01-20T08:31:24.606Z,81.44
2023-01-20T08:33:56.183Z,81.76
2023-01-20T08:36:26.965Z,81.57
2023-01-20T08:38:56.456Z,81.33
2023-01-20T08:41:26.963Z,81.23
2023-01-20T08:43:54.643Z,80.58
2023-01-20T08:46:22.350Z,80.97
2023-01-20T08:48:50.284Z,81.08
2023-01-20T08:51:23.577Z,81.18
2023-01-20T08:53:51.085Z,80.58
2023-01-20T08:56:19.221Z,81.07
2023-01-20T08:58:46.800Z,80.97
2023-01-20T09:01:17.299Z,81.02
2023-01-20T09:03:59.012Z,80.64
2023-01-20T09:06:30.131Z,80.51
2023-01-20T09:08:57.130Z,80.13
2023-01-20T09:11:27.494Z,80.17
2023-01-20T09:13:54.781Z,80.18
2023-01-20T09:16:21.806Z,80.33
2023-01-20T09:18:48.753Z,79.61
2023-01-20T09:21:15.781Z,79.86
2023-01-20T09:23:48.031Z,79.61
2023-01-20T09:26:29.635Z,79.37
2023-01-20T09:29:09.202Z,79.76
2023-01-20T09:31:45.807Z,79.69
2023-01-20T09:34:19.709Z,79.40
2023-01-20T09:36:51.447Z,78.75
2023-01-20T09:39:37.559Z,78.67
2023-01-20T09:42:41.309Z,78.35
2023-01-20T09:45:34.241Z,78.73
2023-01-20T09:48:49.126Z,78.62
2023-01-20T09:52:02.720Z,78.53
2023-01-20T09:54:41.710Z,78.97
2023-01-20T09:57:10.905Z,78.93
2023-01-20T09:59:43.417Z,78.21
2023-01-20T10:02:19.148Z,78.77
2023-01-20T10:04:50.819Z,78.50
2023-01-20T10:07:43.367Z,78.19
2023-01-20T10:10:19.683Z,78.60
2023-01-20T10:12:57.052Z,78.12
2023-01-20T10:15:30.331Z,78.38
2023-01-20T10:18:05.508Z,77.86
2023-01-20T10:20:35.449Z,77.63
2023-01-20T10:23:10.823Z,77.99
2023-01-20T10:25:49.914Z,77.70
2023-01-20T10:28:26.561Z,77.66
2023-01-20T10:30:54.124Z,77.80
2023-01-20T10:33:37.251Z,77.85
2023-01-20T10:36:05.030Z,77.81
2023-01-20T10:38:52.696Z,77.45
2023-01-20T10:41:36.427Z,77.95
2023-01-20T10:44:10.841Z,77.48
2023-01-20T10:46:46.454Z,77.26
2023-01-20T10:49:52.445Z,76.97
2023-01-20T10:53:00.418Z,76.84
2023-01-20T10:56:01.341Z,77.08
2023-01-20T10:58:35.706Z,76.84
2023-01-20T11:01:10.983Z,76.52
2023-01-20T11:03:42.852Z,76.87
2023-01-20T11:06:21.797Z,76.46
2023-01-20T11:08:49.739Z,76.82
2023-01-20T11:11:20.549Z,76.97
2023-01-20T11:13:48.629Z,77.14
2023-01-20T11:16:32.012Z,76.83
2023-01-20T11:19:04.605Z,76.68
2023-01-20T11:21:33.652Z,76.18
2023-01-20T11:24:00.866Z,76.63
2023-01-20T11:26:34.859Z,76.76
2023-01-20T11:29:29.299Z,76.77
2023-01-20T11:31:57.476Z,76.96
2023-01-20T11:34:28.266Z,76.83
2023-01-20T11:37:10.234Z,76.35
2023-01-20T11:39:43.230Z,76.32
2023-01-20T11:42:20.394Z,76.70
2023-01-20T11:45:01.136Z,76.07
2023-01-20T11:47:35.341Z,76.67
2023-01-20T11:50:05.620Z,76.05
2023-01-20T11:52:43.735Z,76.56
2023-01-20T11:55:14.082Z,76.38
2023-01-20T11:57:53.961Z,76.40
2023-01-20T12:00:26.565Z,76.39
2023-01-20T12:02:59.585Z,76.57
2023-01-20T12:05:34.947Z,76.21
2023-01-20T12:08:04.900Z,76.62
2023-01-20T12:10:37.396Z,76.50
2023-01-20T12:13:26.528Z,76.63
2023-01-20T12:15:56.862Z,77.01
2023-01-20T12:18:56.910Z,76.49
2023-01-20T12:21:36.594Z,77.09
2023-01-20T12:24:53.391Z,76.64
2023-01-20T12:27:25.780Z,77.05
2023-01-20T12:29:57.318Z,76.86
2023-01-20T12:32:24.323Z,76.53
2023-01-20T12:34:51.575Z,76.31
2023-01-20T12:37:43.363Z,76.55
2023-01-20T12:40:28.028Z,76.78
2023-01-20T12:43:04.281Z,76.90
2023-01-20T12:45:43.494Z,77.07
2023-01-20T12:48:31.212Z,76.67
2023-01-20T12:51:16.681Z,76.65
2023-01-20T12:54:09.820Z,76.74
2023-01-20T12:57:02.671Z,76.08
2023-01-20T13:00:10.466Z,76.41
2023-01-20T13:03:11.206Z,76.34
2023-01-20T13:06:19.316Z,76.27
2023-01-20T13:09:10.623Z,77.11
2023-01-20T13:11:40.236Z,76.74
2023-01-20T13:14:32.142Z,76.63
2023-01-20T13:17:14.397Z,76.82
2023-01-20T13:19:43.495Z,77.10
2023-01-20T13:22:20.440Z,76.58
2023-01-20T13:24:58.730Z,76.91
2023-01-20T13:27:29.914Z,77.17
2023-01-20T13:29:58.908Z,77.56
2023-01-20T13:32:33.454Z,77.24
2023-01-20T13:35:02.904Z,77.41
2023-01-20T13:37:34.364Z,77.63
2023-01-20T13:40:01.943Z,77.89
2023-01-20T13:42:39.354Z,77.77
2023-01-20T13:45:12.369Z,77.79
2023-01-20T13:47:54.573Z,77.97
2023-01-20T13:50:42.756Z,77.67
2023-01-20T13:53:23.705Z,77.50
2023-01-20T13:56:34.657Z,77.32
2023-01-20T13:59:01.629Z,77.17
2023-01-20T14:01:28.674Z,77.26
2023-01-20T14:04:07.457Z,77.28
2023-01-20T14:06:36.102Z,77.42
2023-01-20T14:09:07.878Z,77.40
2023-01-20T14:11:48.546Z,77.35
2023-01-20T14:14:19.554Z,77.10
2023-01-20T14:16:46.967Z,77.01
2023-01-20T14:19:35.215Z,77.12
2023-01-20T14:22:16.669Z,77.44
2023-01-20T14:24:48.604Z,77.62
2023-01-20T14:27:15.560Z,77.71
2023-01-20T14:29:43.258Z,77.39
2023-01-20T14:32:22.372Z,77.48
2023-01-20T14:34:50.247Z,77.57
2023-01-20T14:37:33.892Z,77.44
2023-01-20T14:40:23.184Z,77.72
2023-01-20T14:43:03.384Z,77.25
2023-01-20T14:45:32.974Z,77.71
2023-01-20T14:48:02.739Z,77.74
2023-01-20T14:50:30.081Z,77.74
2023-01-20T14:52:57.256Z,77.96
2023-01-20T14:55:35.848Z,77.75
2023-01-20T14:58:17.792Z,77.84
2023-01-20T15:00:46.764Z,77.74
2023-01-20T15:03:28.581Z,78.05
2023-01-20T15:06:10.401Z,78.40
2023-01-20T15:08:37.515Z,78.04
2023-01-20T15:11:17.097Z,78.22
2023-01-20T15:14:10.205Z,78.78
2023-01-20T15:16:37.121Z,78.12
2023-01-20T15:19:34.004Z,78.23
2023-01-20T15:22:25.582Z,78.31
2023-01-20T15:24:53.797Z,78.25
2023-01-20T15:27:33.556Z,77.81
2023-01-20T15:30:16.228Z,77.90
2023-01-20T15:32:43.317Z,77.75
2023-01-20T15:35:14.736Z,78.13
2023-01-20T15:37:43.955Z,77.96
2023-01-20T15:40:21.991Z,78.08
2023-01-20T15:42:50.079Z,77.94
2023-01-20T15:45:18.146Z,77.84
2023-01-20T15:47:47.292Z,77.91
2023-01-20T15:50:20.566Z,78.03
2023-01-20T15:52:48.077Z,78.11
2023-01-20T15:55:17.080Z,77.97
2023-01-20T15:57:45.505Z,77.89
2023-01-20T16:00:20.617Z,77.38
2023-01-20T16:02:47.638Z,77.91
2023-01-20T16:05:17.400Z,78.12
2023-01-20T16:07:47.100Z,77.94
2023-01-20T16:10:16.381Z,77.82
2023-01-20T16:12:44.462Z,77.76
2023-01-20T16:15:17.601Z,78.50
2023-01-20T16:17:45.182Z,78.38
2023-01-20T16:20:24.080Z,77.72
2023-01-20T16:22:51.839Z,77.76
2023-01-20T16:25:19.964Z,77.80
2023-01-20T16:27:46.915Z,77.79
2023-01-20T16:30:19.526Z,77.14
2023-01-20T16:32:46.789Z,77.20
2023-01-20T16:35:19.549Z,76.88
2023-01-20T16:37:47.683Z,77.31
2023-01-20T16:40:19.176Z,76.81
2023-01-20T16:42:46.917Z,76.64
2023-01-20T16:45:29.476Z,76.15
2023-01-20T16:47:57.213Z,75.97
2023-01-20T16:50:26.079Z,76.09
2023-01-20T16:52:53.063Z,75.66
2023-01-20T16:55:20.327Z,75.64
2023-01-20T16:57:47.317Z,75.38
2023-01-20T17:00:18.497Z,75.68
2023-01-20T17:02:49.764Z,75.91
2023-01-20T17:05:22.335Z,75.47
2023-01-20T17:07:50.423Z,75.36
2023-01-20T17:10:18.114Z,75.44
2023-01-20T17:12:47.993Z,74.97
2023-01-20T17:15:15.929Z,74.35
2023-01-20T17:17:43.446Z,74.97
2023-01-20T17:20:10.936Z,75.41
2023-01-20T17:22:39.562Z,74.81
2023-01-20T17:25:08.315Z,73.93
2023-01-20T17:27:39.244Z,74.96
2023-01-20T17:30:08.237Z,74.72
2023-01-20T17:32:35.909Z,74.11
2023-01-20T17:35:04.056Z,74.53
2023-01-20T17:37:31.095Z,74.23
2023-01-20T17:39:59.816Z,74.34
2023-01-20T17:42:26.643Z,73.96
2023-01-20T17:44:53.632Z,74.71
2023-01-20T17:47:20.503Z,74.31
2023-01-20T17:49:47.464Z,74.91
2023-01-20T17:52:14.352Z,74.70
2023-01-20T17:54:41.194Z,74.67
2023-01-20T17:57:08.058Z,74.48
2023-01-20T17:59:35.037Z,74.25
2023-01-20T18:02:01.990Z,73.99
2023-01-20T18:04:29.642Z,74.51
2023-01-20T18:06:56.871Z,74.89
2023-01-20T18:09:23.749Z,74.09
2023-01-20T18:11:50.694Z,74.35
2023-01-20T18:14:17.679Z,73.99
2023-01-20T18:16:44.584Z,73.76
2023-01-20T18:19:14.108Z,74.62
2023-01-20T18:21:42.596Z,74.49
2023-01-20T18:24:11.988Z,74.83
2023-01-20T18:26:40.687Z,74.18
2023-01-20T18:29:12.651Z,74.91
2023-01-20T18:31:39.750Z,74.46
2023-01-20T18:34:10.417Z,74.47
2023-01-20T18:36:40.282Z,74.50
2023-01-20T18:39:15.068Z,75.05
2023-01-20T18:41:42.144Z,74.99
2023-01-20T18:44:10.142Z,74.40
2023-01-20T18:46:37.432Z,74.67
2023-01-20T18:49:05.819Z,74.44
2023-01-20T18:51:34.783Z,75.24
2023-01-20T18:54:07.749Z,74.84
2023-01-20T18:56:35.110Z,75.04
2023-01-20T18:59:03.511Z,74.73
2023-01-20T19:01:33.868Z,74.81
2023-01-20T19:04:02.682Z,74.90
2023-01-20T19:06:32.036Z,75.29
2023-01-20T19:08:59.646Z,74.73
2023-01-20T19:11:31.733Z,74.65
2023-01-20T19:13:59.262Z,74.78
2023-01-20T19:16:28.566Z,74.60
2023-01-20T19:19:01.704Z,74.55
2023-01-20T19:21:31.789Z,74.49
2023-01-20T19:24:01.487Z,74.36
2023-01-20T19:26:29.028Z,74.52
2023-01-20T19:29:02.539Z,74.58
2023-01-20T19:31:31.716Z,75.68
2023-01-20T19:33:59.310Z,75.01
2023-01-20T19:36:26.226Z,75.18
2023-01-20T19:38:53.267Z,75.04
2023-01-20T19:41:27.989Z,75.25
2023-01-20T19:43:57.402Z,75.38
2023-01-20T19:46:27.112Z,75.38
2023-01-20T19:48:56.352Z,75.47
2023-01-20T19:51:23.835Z,75.80
2023-01-20T19:54:00.234Z,75.63
2023-01-20T19:56:30.453Z,75.69
2023-01-20T19:58:58.152Z,75.93
2023-01-20T20:01:31.185Z,75.79
2023-01-20T20:03:59.203Z,75.55
2023-01-20T20:06:33.616Z,76.03
2023-01-20T20:09:10.424Z,75.82
2023-01-20T20:11:37.959Z,75.87
2023-01-20T20:14:06.991Z,76.51
2023-01-20T20:16:36.572Z,76.15
2023-01-20T20:19:05.107Z,76.21
2023-01-20T20:21:32.318Z,76.56
2023-01-20T20:24:00.957Z,76.62
2023-01-20T20:26:30.647Z,76.73
2023-01-20T20:28:59.349Z,76.48
2023-01-20T20:31:30.025Z,76.53
2023-01-20T20:33:58.650Z,76.77
2023-01-20T20:36:42.396Z,76.49
2023-01-20T20:39:14.522Z,76.69
2023-01-20T20:41:41.942Z,76.95
2023-01-20T20:44:09.697Z,76.71
2023-01-20T20:46:36.767Z,76.72
2023-01-20T20:49:03.910Z,77.07
2023-01-20T20:51:34.149Z,76.63
2023-01-20T20:54:02.966Z,76.72
2023-01-20T20:56:33.881Z,76.39
2023-01-20T20:59:03.406Z,76.96
2023-01-20T21:01:33.105Z,76.94
2023-01-20T21:04:00.983Z,77.04
2023-01-20T21:06:29.381Z,77.27
2023-01-20T21:08:56.428Z,76.90
2023-01-20T21:11:25.081Z,76.53
2023-01-20T21:13:52.614Z,76.86
2023-01-20T21:16:22.248Z,77.00
2023-01-20T21:18:51.181Z,77.23
2023-01-20T21:21:19.606Z,76.94
2023-01-20T21:23:51.675Z,77.20
2023-01-20T21:26:19.392Z,77.37
2023-01-20T21:28:49.358Z,77.16
2023-01-20T21:31:21.630Z,77.73
2023-01-20T21:33:58.520Z,77.43
2023-01-20T21:36:26.560Z,77.54
2023-01-20T21:38:53.779Z,77.70
2023-01-20T21:41:21.175Z,77.86
2023-01-20T21:44:07.291Z,77.75
2023-01-20T21:46:38.706Z,77.56
2023-01-20T21:49:25.362Z,77.50
2023-01-20T21:52:10.975Z,77.58
2023-01-20T21:54:39.899Z,77.44
2023-01-20T21:57:07.170Z,77.85
2023-01-20T21:59:34.119Z,77.58
2023-01-20T22:02:01.205Z,77.69
2023-01-20T22:04:28.332Z,77.66
2023-01-20T22:06:55.332Z,77.95
2023-01-20T22:09:22.204Z,78.16
2023-01-20T22:11:49.548Z,78.46
2023-01-20T22:14:16.747Z,78.00
2023-01-20T22:16:43.696Z,78.02
2023-01-20T22:19:15.090Z,77.88
2023-01-20T22:21:42.394Z,78.29
2023-01-20T22:24:10.706Z,78.03
2023-01-20T22:26:37.669Z,77.83
2023-01-20T22:29:04.757Z,78.07
2023-01-20T22:31:32.103Z,78.58
2023-01-20T22:34:04.183Z,77.70
2023-01-20T22:36:31.483Z,77.90
2023-01-20T22:38:58.637Z,77.96
2023-01-20T22:41:25.949Z,79.03
2023-01-20T22:43:53.153Z,78.64
2023-01-20T22:46:22.091Z,78.94
2023-01-20T22:48:49.299Z,78.59
2023-01-20T22:51:21.946Z,78.90
2023-01-20T22:53:49.034Z,78.70
2023-01-20T22:56:19.135Z,78.63
2023-01-20T22:58:46.440Z,78.98
2023-01-20T23:01:22.018Z,79.51
2023-01-20T23:03:53.628Z,79.95
2023-01-20T23:06:20.648Z,78.97
2023-01-20T23:08:47.514Z,78.79
2023-01-20T23:11:17.047Z,78.44
2023-01-20T23:13:44.183Z,78.34
2023-01-20T23:16:15.315Z,78.38
2023-01-20T23:18:42.322Z,78.27
2023-01-20T23:21:10.575Z,78.46
2023-01-20T23:23:37.580Z,78.12
2023-01-20T23:26:12.107Z,78.30
2023-01-20T23:28:39.012Z,78.21
2023-01-20T23:31:08.868Z,77.16
2023-01-20T23:33:35.902Z,76.89
2023-01-20T23:36:07.550Z,76.96
2023-01-20T23:38:34.862Z,76.79
2023-01-20T23:41:02.562Z,77.58
2023-01-20T23:43:31.087Z,76.27
2023-01-20T23:46:03.653Z,76.14
2023-01-20T23:48:30.755Z,76.34
2023-01-20T23:51:01.889Z,76.03
2023-01-20T23:53:30.841Z,76.12
2023-01-20T23:56:16.249Z,74.25
2023-01-20T23:58:43.482Z,75.52
